sensor_id;sensor_type;location;lat;lon;timestamp;pressure;altitude;pressure_sealevel;temperature;humidity
46682;BME280;34101;53.430;-2.224;2022-07-23T00:01:40;156782.53;;;17.31;100.00
46682;BME280;34101;53.430;-2.224;2022-07-23T00:04:07;156784.88;;;17.32;100.00
46682;BME280;34101;53.430;-2.224;2022-07-23T00:06:34;156782.45;;;17.31;100.00
46682;BME280;34101;53.430;-2.224;2022-07-23T00:09:01;156777.09;;;17.29;100.00
46682;BME280;34101;53.430;-2.224;2022-07-23T00:11:28;156791.13;;;17.35;100.00
46682;BME280;34101;53.430;-2.224;2022-07-23T00:13:56;156800.63;;;17.39;100.00
46682;BME280;34101;53.430;-2.224;2022-07-23T00:16:23;156807.20;;;17.41;100.00
46682;BME280;34101;53.430;-2.224;2022-07-23T00:18:50;156812.24;;;17.43;100.00
46682;BME280;34101;53.430;-2.224;2022-07-23T00:21:18;156819.87;;;17.46;100.00
46682;BME280;34101;53.430;-2.224;2022-07-23T00:23:45;156825.63;;;17.49;100.00
46682;BME280;34101;53.430;-2.224;2022-07-23T00:26:13;156826.28;;;17.49;100.00
46682;BME280;34101;53.430;-2.224;2022-07-23T00:28:40;156838.29;;;17.54;100.00
46682;BME280;34101;53.430;-2.224;2022-07-23T00:31:07;156847.30;;;17.57;100.00
46682;BME280;34101;53.430;-2.224;2022-07-23T00:33:34;156845.11;;;17.57;100.00
46682;BME280;34101;53.430;-2.224;2022-07-23T00:36:01;156839.75;;;17.54;100.00
46682;BME280;34101;53.430;-2.224;2022-07-23T00:38:28;156855.18;;;17.61;100.00
46682;BME280;34101;53.430;-2.224;2022-07-23T00:40:57;156877.26;;;17.69;100.00
46682;BME280;34101;53.430;-2.224;2022-07-23T00:43:24;156884.89;;;17.73;100.00
46682;BME280;34101;53.430;-2.224;2022-07-23T00:45:52;156891.47;;;17.75;100.00
46682;BME280;34101;53.430;-2.224;2022-07-23T00:48:19;156892.68;;;17.76;100.00
46682;BME280;34101;53.430;-2.224;2022-07-23T00:50:46;156894.06;;;17.76;100.00
46682;BME280;34101;53.430;-2.224;2022-07-23T00:53:13;156889.68;;;17.74;100.00
46682;BME280;34101;53.430;-2.224;2022-07-23T00:55:41;156898.69;;;17.78;100.00
46682;BME280;34101;53.430;-2.224;2022-07-23T00:58:09;156911.44;;;17.83;100.00
46682;BME280;34101;53.430;-2.224;2022-07-23T01:00:36;156909.16;;;17.82;100.00
46682;BME280;34101;53.430;-2.224;2022-07-23T01:03:03;156893.01;;;17.76;100.00
46682;BME280;34101;53.430;-2.224;2022-07-23T01:05:30;156882.45;;;17.72;100.00
46682;BME280;34101;53.430;-2.224;2022-07-23T01:07:58;156881.97;;;17.71;100.00
46682;BME280;34101;53.430;-2.224;2022-07-23T01:10:26;156890.73;;;17.75;100.00
46682;BME280;34101;53.430;-2.224;2022-07-23T01:12:53;156902.75;;;17.80;100.00
46682;BME280;34101;53.430;-2.224;2022-07-23T01:15:21;156906.57;;;17.81;100.00
46682;BME280;34101;53.430;-2.224;2022-07-23T01:17:49;156906.16;;;17.81;100.00
46682;BME280;34101;53.430;-2.224;2022-07-23T01:20:16;156905.67;;;17.81;100.00
46682;BME280;34101;53.430;-2.224;2022-07-23T01:22:45;156916.23;;;17.85;100.00
46682;BME280;34101;53.430;-2.224;2022-07-23T01:25:12;156926.94;;;17.89;100.00
46682;BME280;34101;53.430;-2.224;2022-07-23T01:27:40;156937.42;;;17.94;100.00
46682;BME280;34101;53.430;-2.224;2022-07-23T01:30:08;156945.62;;;17.97;100.00
46682;BME280;34101;53.430;-2.224;2022-07-23T01:32:36;156956.82;;;18.01;100.00
46682;BME280;34101;53.430;-2.224;2022-07-23T01:35:04;156957.72;;;18.02;100.00
46682;BME280;34101;53.430;-2.224;2022-07-23T01:37:32;156955.85;;;18.01;100.00
46682;BME280;34101;53.430;-2.224;2022-07-23T01:39:59;156938.39;;;17.94;100.00
46682;BME280;34101;53.430;-2.224;2022-07-23T01:42:27;156937.50;;;17.94;100.00
46682;BME280;34101;53.430;-2.224;2022-07-23T01:44:55;156927.68;;;17.90;100.00
46682;BME280;34101;53.430;-2.224;2022-07-23T01:47:22;156930.03;;;17.91;100.00
46682;BME280;34101;53.430;-2.224;2022-07-23T01:49:50;156923.70;;;17.88;100.00
46682;BME280;34101;53.430;-2.224;2022-07-23T01:52:16;156927.59;;;17.90;100.00
46682;BME280;34101;53.430;-2.224;2022-07-23T01:54:44;156935.31;;;17.93;100.00
46682;BME280;34101;53.430;-2.224;2022-07-23T01:57:11;156934.50;;;17.92;100.00
46682;BME280;34101;53.430;-2.224;2022-07-23T01:59:38;156932.63;;;17.92;100.00
46682;BME280;34101;53.430;-2.224;2022-07-23T02:02:05;156937.58;;;17.94;100.00
46682;BME280;34101;53.430;-2.224;2022-07-23T02:04:33;156933.20;;;17.92;100.00
46682;BME280;34101;53.430;-2.224;2022-07-23T02:07:00;156930.60;;;17.91;100.00
46682;BME280;34101;53.430;-2.224;2022-07-23T02:09:28;156920.61;;;17.87;100.00
46682;BME280;34101;53.430;-2.224;2022-07-23T02:11:56;156907.30;;;17.82;100.00
46682;BME280;34101;53.430;-2.224;2022-07-23T02:14:23;156898.37;;;17.78;100.00
46682;BME280;34101;53.430;-2.224;2022-07-23T02:16:50;156891.22;;;17.75;100.00
46682;BME280;34101;53.430;-2.224;2022-07-23T02:19:17;156895.85;;;17.77;100.00
46682;BME280;34101;53.430;-2.224;2022-07-23T02:21:44;156883.51;;;17.72;100.00
46682;BME280;34101;53.430;-2.224;2022-07-23T02:24:11;156879.13;;;17.70;100.00
46682;BME280;34101;53.430;-2.224;2022-07-23T02:26:39;156873.20;;;17.68;100.00
46682;BME280;34101;53.430;-2.224;2022-07-23T02:29:06;156870.76;;;17.67;100.00
46682;BME280;34101;53.430;-2.224;2022-07-23T02:31:34;156864.03;;;17.64;100.00
46682;BME280;34101;53.430;-2.224;2022-07-23T02:34:01;156857.29;;;17.61;100.00
46682;BME280;34101;53.430;-2.224;2022-07-23T02:36:29;156863.94;;;17.64;100.00
46682;BME280;34101;53.430;-2.224;2022-07-23T02:38:56;156867.03;;;17.65;100.00
46682;BME280;34101;53.430;-2.224;2022-07-23T02:41:24;156859.89;;;17.62;100.00
46682;BME280;34101;53.430;-2.224;2022-07-23T02:43:51;156841.05;;;17.55;100.00
46682;BME280;34101;53.430;-2.224;2022-07-23T02:46:18;156832.53;;;17.52;100.00
46682;BME280;34101;53.430;-2.224;2022-07-23T02:48:45;156826.44;;;17.49;100.00
46682;BME280;34101;53.430;-2.224;2022-07-23T02:51:12;156813.70;;;17.44;100.00
46682;BME280;34101;53.430;-2.224;2022-07-23T02:53:40;156794.87;;;17.36;100.00
46682;BME280;34101;53.430;-2.224;2022-07-23T02:56:07;156771.57;;;17.27;100.00
46682;BME280;34101;53.430;-2.224;2022-07-23T02:58:34;156755.99;;;17.21;100.00
46682;BME280;34101;53.430;-2.224;2022-07-23T03:01:01;156747.71;;;17.17;100.00
46682;BME280;34101;53.430;-2.224;2022-07-23T03:03:29;156743.98;;;17.16;100.00
46682;BME280;34101;53.430;-2.224;2022-07-23T03:05:56;156741.54;;;17.15;100.00
46682;BME280;34101;53.430;-2.224;2022-07-23T03:08:23;156740.16;;;17.14;100.00
46682;BME280;34101;53.430;-2.224;2022-07-23T03:10:51;156730.10;;;17.10;100.00
46682;BME280;34101;53.430;-2.224;2022-07-23T03:13:18;156717.68;;;17.05;100.00
46682;BME280;34101;53.430;-2.224;2022-07-23T03:15:45;156703.64;;;17.00;100.00
46682;BME280;34101;53.430;-2.224;2022-07-23T03:18:12;156693.17;;;16.96;100.00
46682;BME280;34101;53.430;-2.224;2022-07-23T03:20:39;156687.09;;;16.93;100.00
46682;BME280;34101;53.430;-2.224;2022-07-23T03:23:06;156675.65;;;16.89;100.00
46682;BME280;34101;53.430;-2.224;2022-07-23T03:25:33;156672.16;;;16.87;100.00
46682;BME280;34101;53.430;-2.224;2022-07-23T03:28:01;156659.99;;;16.82;100.00
46682;BME280;34101;53.430;-2.224;2022-07-23T03:30:28;156646.76;;;16.77;100.00
46682;BME280;34101;53.430;-2.224;2022-07-23T03:32:56;156637.35;;;16.73;100.00
46682;BME280;34101;53.430;-2.224;2022-07-23T03:35:23;156636.94;;;16.73;100.00
46682;BME280;34101;53.430;-2.224;2022-07-23T03:37:50;156633.78;;;16.72;100.00
46682;BME280;34101;53.430;-2.224;2022-07-23T03:40:18;156628.18;;;16.70;100.00
46682;BME280;34101;53.430;-2.224;2022-07-23T03:42:46;156615.77;;;16.65;100.00
46682;BME280;34101;53.430;-2.224;2022-07-23T03:45:13;156586.23;;;16.53;100.00
46682;BME280;34101;53.430;-2.224;2022-07-23T03:47:40;156553.54;;;16.40;100.00
46682;BME280;34101;53.430;-2.224;2022-07-23T03:50:08;156534.96;;;16.32;100.00
46682;BME280;34101;53.430;-2.224;2022-07-23T03:52:36;156513.87;;;16.24;100.00
46682;BME280;34101;53.430;-2.224;2022-07-23T03:55:04;156494.40;;;16.16;100.00
46682;BME280;34101;53.430;-2.224;2022-07-23T03:57:31;156474.69;;;16.08;100.00
46682;BME280;34101;53.430;-2.224;2022-07-23T03:59:59;156456.69;;;16.01;100.00
46682;BME280;34101;53.430;-2.224;2022-07-23T04:02:26;156448.42;;;15.97;100.00
46682;BME280;34101;53.430;-2.224;2022-07-23T04:04:53;156441.60;;;15.95;100.00
46682;BME280;34101;53.430;-2.224;2022-07-23T04:07:20;156431.30;;;15.90;100.00
46682;BME280;34101;53.430;-2.224;2022-07-23T04:09:48;156424.25;;;15.88;100.00
46682;BME280;34101;53.430;-2.224;2022-07-23T04:12:15;156409.65;;;15.82;100.00
46682;BME280;34101;53.430;-2.224;2022-07-23T04:14:43;156402.59;;;15.79;100.00
46682;BME280;34101;53.430;-2.224;2022-07-23T04:17:10;156394.97;;;15.76;100.00
46682;BME280;34101;53.430;-2.224;2022-07-23T04:19:38;156388.00;;;15.73;100.00
46682;BME280;34101;53.430;-2.224;2022-07-23T04:22:06;156381.75;;;15.71;100.00
46682;BME280;34101;53.430;-2.224;2022-07-23T04:24:33;156376.32;;;15.68;100.00
46682;BME280;34101;53.430;-2.224;2022-07-23T04:27:01;156371.78;;;15.67;100.00
46682;BME280;34101;53.430;-2.224;2022-07-23T04:29:28;156361.24;;;15.62;100.00
46682;BME280;34101;53.430;-2.224;2022-07-23T04:31:56;156351.59;;;15.58;100.00
46682;BME280;34101;53.430;-2.224;2022-07-23T04:34:24;156354.02;;;15.59;100.00
46682;BME280;34101;53.430;-2.224;2022-07-23T04:36:51;156353.13;;;15.59;100.00
46682;BME280;34101;53.430;-2.224;2022-07-23T04:39:18;156357.67;;;15.61;100.00
46682;BME280;34101;53.430;-2.224;2022-07-23T04:41:46;156364.48;;;15.64;100.00
46682;BME280;34101;53.430;-2.224;2022-07-23T04:44:13;156366.67;;;15.64;100.00
46682;BME280;34101;53.430;-2.224;2022-07-23T04:46:40;156378.83;;;15.69;100.00
46682;BME280;34101;53.430;-2.224;2022-07-23T04:49:07;156395.13;;;15.76;100.00
46682;BME280;34101;53.430;-2.224;2022-07-23T04:51:35;156418.00;;;15.85;100.00
46682;BME280;34101;53.430;-2.224;2022-07-23T04:54:02;156441.36;;;15.95;100.00
46682;BME280;34101;53.430;-2.224;2022-07-23T04:56:30;156462.04;;;16.03;100.00
46682;BME280;34101;53.430;-2.224;2022-07-23T04:58:57;156475.99;;;16.08;100.00
46682;BME280;34101;53.430;-2.224;2022-07-23T05:01:24;156487.67;;;16.13;100.00
46682;BME280;34101;53.430;-2.224;2022-07-23T05:03:51;156497.16;;;16.17;100.00
46682;BME280;34101;53.430;-2.224;2022-07-23T05:06:18;156493.19;;;16.15;100.00
46682;BME280;34101;53.430;-2.224;2022-07-23T05:08:46;156500.89;;;16.18;100.00
46682;BME280;34101;53.430;-2.224;2022-07-23T05:11:12;156511.19;;;16.23;100.00
46682;BME280;34101;53.430;-2.224;2022-07-23T05:13:39;156522.31;;;16.27;100.00
46682;BME280;34101;53.430;-2.224;2022-07-23T05:16:07;156531.15;;;16.31;100.00
46682;BME280;34101;53.430;-2.224;2022-07-23T05:18:34;156543.32;;;16.35;100.00
46682;BME280;34101;53.430;-2.224;2022-07-23T05:21:02;156555.73;;;16.40;100.00
46682;BME280;34101;53.430;-2.224;2022-07-23T05:23:29;156560.52;;;16.42;100.00
46682;BME280;34101;53.430;-2.224;2022-07-23T05:25:56;156568.22;;;16.45;100.00
46682;BME280;34101;53.430;-2.224;2022-07-23T05:28:23;156571.47;;;16.47;100.00
46682;BME280;34101;53.430;-2.224;2022-07-23T05:30:50;156581.04;;;16.51;100.00
46682;BME280;34101;53.430;-2.224;2022-07-23T05:33:18;156579.82;;;16.50;100.00
46682;BME280;34101;53.430;-2.224;2022-07-23T05:35:45;156597.35;;;16.57;100.00
46682;BME280;34101;53.430;-2.224;2022-07-23T05:38:13;156606.03;;;16.61;100.00
46682;BME280;34101;53.430;-2.224;2022-07-23T05:40:40;156613.66;;;16.64;100.00
46682;BME280;34101;53.430;-2.224;2022-07-23T05:43:07;156620.96;;;16.67;100.00
46682;BME280;34101;53.430;-2.224;2022-07-23T05:45:35;156629.48;;;16.70;100.00
46682;BME280;34101;53.430;-2.224;2022-07-23T05:48:03;156637.19;;;16.73;100.00
46682;BME280;34101;53.430;-2.224;2022-07-23T05:50:30;156656.17;;;16.81;100.00
46682;BME280;34101;53.430;-2.224;2022-07-23T05:52:57;156666.96;;;16.85;100.00
46682;BME280;34101;53.430;-2.224;2022-07-23T05:55:25;156701.94;;;16.99;100.00
46682;BME280;34101;53.430;-2.224;2022-07-23T05:57:52;156695.53;;;16.97;100.00
46682;BME280;34101;53.430;-2.224;2022-07-23T06:00:19;156735.29;;;17.12;100.00
46682;BME280;34101;53.430;-2.224;2022-07-23T06:02:46;156743.17;;;17.16;100.00
46682;BME280;34101;53.430;-2.224;2022-07-23T06:05:14;156763.21;;;17.24;100.00
46682;BME280;34101;53.430;-2.224;2022-07-23T06:07:41;156794.70;;;17.36;100.00
46682;BME280;34101;53.430;-2.224;2022-07-23T06:10:09;156826.04;;;17.49;100.00
46682;BME280;34101;53.430;-2.224;2022-07-23T06:12:37;156846.17;;;17.57;100.00
46682;BME280;34101;53.430;-2.224;2022-07-23T06:15:06;156846.57;;;17.57;100.00
46682;BME280;34101;53.430;-2.224;2022-07-23T06:17:33;156834.56;;;17.52;100.00
46682;BME280;34101;53.430;-2.224;2022-07-23T06:20:01;156873.04;;;17.68;100.00
46682;BME280;34101;53.430;-2.224;2022-07-23T06:22:29;156879.29;;;17.70;100.00
46682;BME280;34101;53.430;-2.224;2022-07-23T06:24:58;156849.33;;;17.58;100.00
46682;BME280;34101;53.430;-2.224;2022-07-23T06:27:26;156851.85;;;17.59;100.00
46682;BME280;34101;53.430;-2.224;2022-07-23T06:29:55;156849.17;;;17.58;100.00
46682;BME280;34101;53.430;-2.224;2022-07-23T06:32:23;156880.51;;;17.71;100.00
46682;BME280;34101;53.430;-2.224;2022-07-23T06:34:53;156886.51;;;17.73;100.00
46682;BME280;34101;53.430;-2.224;2022-07-23T06:37:22;156903.48;;;17.80;100.00
46682;BME280;34101;53.430;-2.224;2022-07-23T06:39:51;156903.08;;;17.80;100.00
46682;BME280;34101;53.430;-2.224;2022-07-23T06:42:21;156893.41;;;17.76;100.00
46682;BME280;34101;53.430;-2.224;2022-07-23T06:44:52;156875.47;;;17.69;100.00
46682;BME280;34101;53.430;-2.224;2022-07-23T06:47:21;156898.53;;;17.78;100.00
46682;BME280;34101;53.430;-2.224;2022-07-23T06:49:55;156921.99;;;17.87;100.00
46682;BME280;34101;53.430;-2.224;2022-07-23T06:52:32;156953.41;;;18.00;100.00
46682;BME280;34101;53.430;-2.224;2022-07-23T06:55:21;156905.51;;;17.81;100.00
46682;BME280;34101;53.430;-2.224;2022-07-23T06:57:49;156918.34;;;17.86;100.00
46682;BME280;34101;53.430;-2.224;2022-07-23T07:00:26;156902.02;;;17.79;100.00
46682;BME280;34101;53.430;-2.224;2022-07-23T07:03:56;156889.52;;;17.74;100.00
46682;BME280;34101;53.430;-2.224;2022-07-23T07:06:27;156900.48;;;17.79;100.00
46682;BME280;34101;53.430;-2.224;2022-07-23T07:09:18;156926.62;;;17.89;100.00
46682;BME280;34101;53.430;-2.224;2022-07-23T07:13:09;156933.20;;;17.92;100.00
46682;BME280;34101;53.430;-2.224;2022-07-23T07:43:28;157271.73;;;19.28;100.00
46682;BME280;34101;53.430;-2.224;2022-07-23T07:45:56;157290.58;;;19.35;100.00
46682;BME280;34101;53.430;-2.224;2022-07-23T07:48:24;157258.00;;;19.22;100.00
46682;BME280;34101;53.430;-2.224;2022-07-23T07:50:51;157232.49;;;19.12;100.00
46682;BME280;34101;53.430;-2.224;2022-07-23T07:53:19;157240.37;;;19.15;100.00
46682;BME280;34101;53.430;-2.224;2022-07-23T07:55:48;157248.00;;;19.18;100.00
46682;BME280;34101;53.430;-2.224;2022-07-23T07:58:16;157177.89;;;18.90;100.00
46682;BME280;34101;53.430;-2.224;2022-07-23T08:00:45;157211.04;;;19.03;100.00
46682;BME280;34101;53.430;-2.224;2022-07-23T08:03:14;157352.42;;;19.60;100.00
46682;BME280;34101;53.430;-2.224;2022-07-23T08:05:43;157692.07;;;20.96;100.00
46682;BME280;34101;53.430;-2.224;2022-07-23T08:08:11;157933.25;;;21.93;100.00
46682;BME280;34101;53.430;-2.224;2022-07-23T08:10:39;157954.08;;;22.01;100.00
46682;BME280;34101;53.430;-2.224;2022-07-23T08:13:06;157922.18;;;21.88;100.00
46682;BME280;34101;53.430;-2.224;2022-07-23T08:15:33;157767.78;;;21.26;100.00
46682;BME280;34101;53.430;-2.224;2022-07-23T08:18:00;157715.98;;;21.06;100.00
46682;BME280;34101;53.430;-2.224;2022-07-23T08:20:28;157663.77;;;20.85;100.00
46682;BME280;34101;53.430;-2.224;2022-07-23T08:22:57;157583.27;;;20.52;100.00
46682;BME280;34101;53.430;-2.224;2022-07-23T08:25:27;157552.70;;;20.40;100.00
46682;BME280;34101;53.430;-2.224;2022-07-23T08:27:56;157507.99;;;20.22;100.00
46682;BME280;34101;53.430;-2.224;2022-07-23T08:30:24;157494.09;;;20.17;100.00
46682;BME280;34101;53.430;-2.224;2022-07-23T08:32:53;157413.94;;;19.85;100.00
46682;BME280;34101;53.430;-2.224;2022-07-23T08:35:24;157435.48;;;19.93;100.00
46682;BME280;34101;53.430;-2.224;2022-07-23T08:37:53;157441.49;;;19.96;100.00
46682;BME280;34101;53.430;-2.224;2022-07-23T08:40:21;157446.61;;;19.98;100.00
46682;BME280;34101;53.430;-2.224;2022-07-23T08:42:50;157503.84;;;20.21;100.00
46682;BME280;34101;53.430;-2.224;2022-07-23T08:45:20;157585.46;;;20.53;100.00
46682;BME280;34101;53.430;-2.224;2022-07-23T08:47:49;157611.73;;;20.64;100.00
46682;BME280;34101;53.430;-2.224;2022-07-23T08:50:17;157611.24;;;20.64;100.00
46682;BME280;34101;53.430;-2.224;2022-07-23T08:52:45;157647.58;;;20.78;100.00
46682;BME280;34101;53.430;-2.224;2022-07-23T08:55:12;157602.62;;;20.60;100.00
46682;BME280;34101;53.430;-2.224;2022-07-23T08:57:39;157688.81;;;20.95;100.00
46682;BME280;34101;53.430;-2.224;2022-07-23T09:00:07;157640.75;;;20.75;100.00
46682;BME280;34101;53.430;-2.224;2022-07-23T09:02:40;157677.43;;;20.90;100.00
46682;BME280;34101;53.430;-2.224;2022-07-23T09:05:08;157670.35;;;20.87;100.00
46682;BME280;34101;53.430;-2.224;2022-07-23T09:07:35;157621.08;;;20.68;100.00
46682;BME280;34101;53.430;-2.224;2022-07-23T09:10:08;157601.40;;;20.60;100.00
46682;BME280;34101;53.430;-2.224;2022-07-23T09:12:36;157534.98;;;20.33;100.00
46682;BME280;34101;53.430;-2.224;2022-07-23T09:15:06;157482.70;;;20.12;100.00
46682;BME280;34101;53.430;-2.224;2022-07-23T09:17:40;157484.98;;;20.13;100.00
46682;BME280;34101;53.430;-2.224;2022-07-23T09:20:10;157535.14;;;20.33;100.00
46682;BME280;34101;53.430;-2.224;2022-07-23T09:22:38;157560.18;;;20.43;100.00
46682;BME280;34101;53.430;-2.224;2022-07-23T09:25:09;157601.32;;;20.60;100.00
46682;BME280;34101;53.430;-2.224;2022-07-23T09:27:55;157680.84;;;20.92;100.00
46682;BME280;34101;53.430;-2.224;2022-07-23T09:30:24;157715.98;;;21.06;100.00
46682;BME280;34101;53.430;-2.224;2022-07-23T09:33:09;157679.54;;;20.91;100.00
46682;BME280;34101;53.430;-2.224;2022-07-23T09:35:46;157578.63;;;20.51;100.00
46682;BME280;34101;53.430;-2.224;2022-07-23T09:38:14;157534.98;;;20.33;100.00
46682;BME280;34101;53.430;-2.224;2022-07-23T09:40:41;157563.59;;;20.45;100.00
46682;BME280;34101;53.430;-2.224;2022-07-23T09:43:10;157572.78;;;20.48;100.00
46682;BME280;34101;53.430;-2.224;2022-07-23T09:45:38;157512.62;;;20.24;100.00
46682;BME280;34101;53.430;-2.224;2022-07-23T09:48:12;157504.65;;;20.21;100.00
46682;BME280;34101;53.430;-2.224;2022-07-23T09:50:41;157512.54;;;20.24;100.00
46682;BME280;34101;53.430;-2.224;2022-07-23T09:53:24;157443.93;;;19.97;100.00
46682;BME280;34101;53.430;-2.224;2022-07-23T09:55:58;157526.52;;;20.30;100.00
46682;BME280;34101;53.430;-2.224;2022-07-23T09:59:05;157551.56;;;20.40;100.00
46682;BME280;34101;53.430;-2.224;2022-07-23T10:02:13;157473.60;;;20.09;100.00
46682;BME280;34101;53.430;-2.224;2022-07-23T10:06:27;157547.01;;;20.38;100.00
46682;BME280;34101;53.430;-2.224;2022-07-23T10:09:03;157595.30;;;20.57;100.00
46682;BME280;34101;53.430;-2.224;2022-07-23T10:12:22;157541.40;;;20.36;100.00
46682;BME280;34101;53.430;-2.224;2022-07-23T10:18:53;157506.28;;;20.22;100.00
46682;BME280;34101;53.430;-2.224;2022-07-23T10:21:27;157556.93;;;20.42;98.82
46682;BME280;34101;53.430;-2.224;2022-07-23T10:24:08;157560.75;;;20.43;99.30
46682;BME280;34101;53.430;-2.224;2022-07-23T10:26:48;157594.81;;;20.57;93.63
46682;BME280;34101;53.430;-2.224;2022-07-23T10:29:33;157577.66;;;20.50;92.82
46682;BME280;34101;53.430;-2.224;2022-07-23T10:32:09;157595.30;;;20.57;86.29
46682;BME280;34101;53.430;-2.224;2022-07-23T10:34:49;157588.47;;;20.55;84.41
46682;BME280;34101;53.430;-2.224;2022-07-23T10:37:27;157547.41;;;20.38;84.72
46682;BME280;34101;53.430;-2.224;2022-07-23T10:40:16;157557.74;;;20.42;81.76
46682;BME280;34101;53.430;-2.224;2022-07-23T10:42:44;157496.77;;;20.18;81.76
46682;BME280;34101;53.430;-2.224;2022-07-23T10:45:29;157545.30;;;20.37;83.30
46682;BME280;34101;53.430;-2.224;2022-07-23T10:48:13;157545.54;;;20.37;83.09
46682;BME280;34101;53.430;-2.224;2022-07-23T10:50:41;157474.09;;;20.09;85.43
46682;BME280;34101;53.430;-2.224;2022-07-23T10:53:14;157388.26;;;19.74;88.79
46682;BME280;34101;53.430;-2.224;2022-07-23T10:55:46;157181.39;;;18.91;97.32
46682;BME280;34101;53.430;-2.224;2022-07-23T10:58:21;157165.95;;;18.85;98.65
46682;BME280;34101;53.430;-2.224;2022-07-23T11:00:49;157217.54;;;19.06;96.05
46682;BME280;34101;53.430;-2.224;2022-07-23T11:03:35;157278.31;;;19.30;91.82
46682;BME280;34101;53.430;-2.224;2022-07-23T11:06:02;157340.15;;;19.55;88.79
46682;BME280;34101;53.430;-2.224;2022-07-23T11:08:30;157266.04;;;19.25;91.16
46682;BME280;34101;53.430;-2.224;2022-07-23T11:11:09;157324.95;;;19.49;91.07
46682;BME280;34101;53.430;-2.224;2022-07-23T11:13:46;157262.55;;;19.24;92.17
46682;BME280;34101;53.430;-2.224;2022-07-23T11:16:21;157348.03;;;19.58;89.72
46682;BME280;34101;53.430;-2.224;2022-07-23T11:18:59;157291.31;;;19.35;90.92
46682;BME280;34101;53.430;-2.224;2022-07-23T11:21:49;157390.13;;;19.75;89.30
46682;BME280;34101;53.430;-2.224;2022-07-23T11:24:18;157369.32;;;19.67;89.44
46682;BME280;34101;53.430;-2.224;2022-07-23T11:26:49;157357.13;;;19.62;90.36
46682;BME280;34101;53.430;-2.224;2022-07-23T11:29:49;157356.89;;;19.62;87.95
46682;BME280;34101;53.430;-2.224;2022-07-23T11:32:29;157329.66;;;19.51;87.51
46682;BME280;34101;53.430;-2.224;2022-07-23T11:34:56;157370.54;;;19.67;84.34
46682;BME280;34101;53.430;-2.224;2022-07-23T11:37:31;157335.76;;;19.53;84.97
46682;BME280;34101;53.430;-2.224;2022-07-23T11:39:59;157298.38;;;19.38;85.11
46682;BME280;34101;53.430;-2.224;2022-07-23T11:42:26;157285.79;;;19.33;85.50
46682;BME280;34101;53.430;-2.224;2022-07-23T11:44:53;157243.94;;;19.16;86.81
46682;BME280;34101;53.430;-2.224;2022-07-23T11:47:23;157306.99;;;19.42;86.07
46682;BME280;34101;53.430;-2.224;2022-07-23T11:49:53;157281.64;;;19.32;86.73
46682;BME280;34101;53.430;-2.224;2022-07-23T11:52:22;157263.28;;;19.24;88.75
46682;BME280;34101;53.430;-2.224;2022-07-23T11:54:51;157189.43;;;18.95;92.62
46682;BME280;34101;53.430;-2.224;2022-07-23T11:57:35;157106.74;;;18.61;98.80
46682;BME280;34101;53.430;-2.224;2022-07-23T12:04:44;157018.29;;;18.26;100.00
46682;BME280;34101;53.430;-2.224;2022-07-23T12:07:30;157001.73;;;18.19;100.00
46682;BME280;34101;53.430;-2.224;2022-07-23T12:09:59;157015.86;;;18.25;100.00
46682;BME280;34101;53.430;-2.224;2022-07-23T12:12:27;157024.79;;;18.29;100.00
46682;BME280;34101;53.430;-2.224;2022-07-23T12:15:02;156997.10;;;18.18;100.00
46682;BME280;34101;53.430;-2.224;2022-07-23T12:17:31;156951.22;;;17.99;100.00
46682;BME280;34101;53.430;-2.224;2022-07-23T12:20:00;156906.65;;;17.81;100.00
46682;BME280;34101;53.430;-2.224;2022-07-23T12:22:34;156971.11;;;18.07;100.00
46682;BME280;34101;53.430;-2.224;2022-07-23T12:25:05;157014.07;;;18.24;100.00
46682;BME280;34101;53.430;-2.224;2022-07-23T12:27:34;157033.89;;;18.32;100.00
46682;BME280;34101;53.430;-2.224;2022-07-23T12:30:38;157012.53;;;18.24;100.00
46682;BME280;34101;53.430;-2.224;2022-07-23T12:33:06;156953.33;;;18.00;100.00
46682;BME280;34101;53.430;-2.224;2022-07-23T12:35:36;156958.12;;;18.02;100.00
46682;BME280;34101;53.430;-2.224;2022-07-23T12:38:07;156989.55;;;18.14;100.00
46682;BME280;34101;53.430;-2.224;2022-07-23T12:40:37;157039.81;;;18.35;100.00
46682;BME280;34101;53.430;-2.224;2022-07-23T12:43:10;157035.59;;;18.33;100.00
46682;BME280;34101;53.430;-2.224;2022-07-23T12:45:47;157046.64;;;18.37;100.00
46682;BME280;34101;53.430;-2.224;2022-07-23T12:48:20;157098.53;;;18.58;100.00
46682;BME280;34101;53.430;-2.224;2022-07-23T12:50:58;157154.99;;;18.81;100.00
46682;BME280;34101;53.430;-2.224;2022-07-23T12:53:27;157209.74;;;19.03;100.00
46682;BME280;34101;53.430;-2.224;2022-07-23T12:56:02;157252.88;;;19.20;100.00
46682;BME280;34101;53.430;-2.224;2022-07-23T12:58:41;157298.46;;;19.38;100.00
46682;BME280;34101;53.430;-2.224;2022-07-23T13:01:08;157309.19;;;19.43;100.00
46682;BME280;34101;53.430;-2.224;2022-07-23T13:03:38;157336.41;;;19.54;100.00
46682;BME280;34101;53.430;-2.224;2022-07-23T13:06:08;157339.82;;;19.55;100.00
46682;BME280;34101;53.430;-2.224;2022-07-23T13:08:37;157351.12;;;19.59;100.00
46682;BME280;34101;53.430;-2.224;2022-07-23T13:11:06;157345.10;;;19.57;100.00
46682;BME280;34101;53.430;-2.224;2022-07-23T13:13:35;157354.13;;;19.61;100.00
46682;BME280;34101;53.430;-2.224;2022-07-23T13:16:02;157362.66;;;19.64;100.00
46682;BME280;34101;53.430;-2.224;2022-07-23T13:18:31;157362.90;;;19.64;100.00
46682;BME280;34101;53.430;-2.224;2022-07-23T13:20:59;157376.88;;;19.70;100.00
46682;BME280;34101;53.430;-2.224;2022-07-23T13:23:27;157402.16;;;19.80;100.00
46682;BME280;34101;53.430;-2.224;2022-07-23T13:25:55;157382.41;;;19.72;100.00